createdAt,value
2022-09-30T00:02:14.908Z,89.80
2022-09-30T00:05:37.066Z,89.70
2022-09-30T00:08:59.320Z,89.70
2022-09-30T00:12:21.666Z,89.60
2022-09-30T00:15:47.021Z,89.60
2022-09-30T00:19:09.334Z,89.50
2022-09-30T00:22:31.438Z,89.50
2022-09-30T00:25:59.154Z,89.40
2022-09-30T00:29:21.370Z,89.30
2022-09-30T00:32:43.509Z,89.20
2022-09-30T00:36:06.075Z,89.10
2022-09-30T00:39:29.250Z,89.10
2022-09-30T00:42:51.746Z,89.10
2022-09-30T00:46:29.657Z,88.90
2022-09-30T00:49:52.653Z,88.90
2022-09-30T00:53:18.576Z,88.90
2022-09-30T00:56:49.306Z,89.00
2022-09-30T01:00:11.583Z,88.90
2022-09-30T01:03:38.263Z,88.90
2022-09-30T01:07:03.721Z,88.90
2022-09-30T01:10:25.889Z,88.80
2022-09-30T01:13:54.108Z,88.80
2022-09-30T01:17:35.101Z,88.70
2022-09-30T01:21:23.170Z,88.50
2022-09-30T01:25:00.335Z,88.50
2022-09-30T01:28:59.967Z,88.50
2022-09-30T01:32:45.109Z,88.30
2022-09-30T01:36:07.292Z,89.20
2022-09-30T01:40:00.195Z,88.30
2022-09-30T01:43:39.818Z,88.30
2022-09-30T01:47:07.966Z,88.30
2022-09-30T01:51:07.709Z,88.10
2022-09-30T01:55:00.585Z,88.10
2022-09-30T01:58:28.693Z,88.00
2022-09-30T02:02:02.089Z,88.00
2022-09-30T02:05:42.838Z,88.00
2022-09-30T02:09:14.821Z,87.90
2022-09-30T02:12:46.552Z,87.90
2022-09-30T02:16:15.519Z,87.80
2022-09-30T02:19:42.353Z,87.80
2022-09-30T02:23:15.886Z,87.80
2022-09-30T02:26:41.590Z,87.80
2022-09-30T02:30:04.413Z,87.60
2022-09-30T02:33:43.941Z,87.50
2022-09-30T02:37:10.003Z,87.60
2022-09-30T02:40:40.793Z,87.40
2022-09-30T02:44:03.170Z,87.40
2022-09-30T02:48:07.689Z,87.40
2022-09-30T02:51:53.698Z,87.30
2022-09-30T02:55:38.778Z,87.20
2022-09-30T02:59:01.197Z,87.20
2022-09-30T03:02:23.667Z,87.10
2022-09-30T03:05:45.949Z,87.00
2022-09-30T03:09:08.923Z,87.00
2022-09-30T03:12:58.209Z,87.00
2022-09-30T03:16:51.120Z,86.80
2022-09-30T03:20:44.814Z,86.70
2022-09-30T03:24:44.482Z,86.80
2022-09-30T03:28:09.468Z,86.80
2022-09-30T03:32:00.649Z,86.90
2022-09-30T03:35:57.250Z,86.80
2022-09-30T03:39:24.912Z,86.70
2022-09-30T03:42:55.081Z,86.70
2022-09-30T03:46:31.332Z,86.70
2022-09-30T03:50:00.374Z,86.50
2022-09-30T03:53:22.626Z,86.60
2022-09-30T03:56:44.805Z,86.60
2022-09-30T04:00:07.626Z,86.60
2022-09-30T04:03:29.899Z,86.60
2022-09-30T04:06:52.066Z,86.40
2022-09-30T04:10:14.334Z,86.40
2022-09-30T04:13:36.514Z,86.30
2022-09-30T04:16:58.665Z,86.90
2022-09-30T04:20:20.934Z,86.20
2022-09-30T04:23:43.566Z,86.10
2022-09-30T04:27:05.918Z,86.10
2022-09-30T04:30:32.704Z,85.90
2022-09-30T04:33:57.058Z,86.00
2022-09-30T04:37:19.314Z,86.10
2022-09-30T04:40:41.415Z,85.80
2022-09-30T04:44:06.267Z,85.80
2022-09-30T04:47:29.298Z,85.80
2022-09-30T04:50:51.545Z,85.80
2022-09-30T04:54:14.267Z,85.80
2022-09-30T04:57:36.604Z,85.80
2022-09-30T05:01:04.508Z,85.80
2022-09-30T05:04:27.500Z,85.70
2022-09-30T05:07:49.755Z,85.90
2022-09-30T05:11:17.717Z,85.80
2022-09-30T05:14:39.831Z,85.70
2022-09-30T05:18:01.977Z,85.60
2022-09-30T05:21:24.091Z,85.80
2022-09-30T05:24:46.243Z,85.50
2022-09-30T05:28:08.497Z,85.30
2022-09-30T05:31:30.774Z,85.30
2022-09-30T05:34:55.252Z,85.30
2022-09-30T05:38:17.509Z,85.60
2022-09-30T05:41:40.979Z,85.30
2022-09-30T05:45:06.732Z,85.30
2022-09-30T05:48:28.924Z,85.70
2022-09-30T05:51:51.034Z,86.60
2022-09-30T05:55:13.774Z,86.40
2022-09-30T05:58:36.794Z,86.20
2022-09-30T06:01:59.020Z,85.90
2022-09-30T06:05:22.056Z,85.90
2022-09-30T06:08:44.509Z,86.00
2022-09-30T06:12:06.881Z,85.90
2022-09-30T06:15:29.519Z,86.00
2022-09-30T06:18:51.801Z,86.10
2022-09-30T06:22:13.995Z,85.60
2022-09-30T06:25:36.185Z,85.70
2022-09-30T06:28:58.324Z,85.50
2022-09-30T06:32:20.533Z,85.30
2022-09-30T06:35:43.200Z,85.40
2022-09-30T06:39:07.257Z,85.20
2022-09-30T06:42:32.725Z,84.80
2022-09-30T06:46:04.959Z,84.70
2022-09-30T06:49:43.526Z,84.70
2022-09-30T06:53:11.902Z,84.90
2022-09-30T06:56:34.794Z,85.20
2022-09-30T06:59:56.921Z,78.50
2022-09-30T07:03:26.518Z,83.10
2022-09-30T07:06:48.696Z,86.90
2022-09-30T07:10:11.232Z,86.60
2022-09-30T07:13:33.408Z,88.60
2022-09-30T07:16:55.658Z,90.50
2022-09-30T07:20:17.845Z,88.80
2022-09-30T07:23:47.229Z,86.90
2022-09-30T07:27:09.346Z,85.80
2022-09-30T07:30:31.462Z,85.20
2022-09-30T07:33:53.708Z,85.40
2022-09-30T07:37:18.501Z,85.60
2022-09-30T07:40:42.515Z,85.20
2022-09-30T07:44:07.912Z,86.00
2022-09-30T07:47:30.115Z,86.00
2022-09-30T07:50:54.215Z,86.50
2022-09-30T07:54:19.646Z,86.70
2022-09-30T07:57:41.826Z,87.00
2022-09-30T08:01:07.460Z,86.90
2022-09-30T08:04:30.194Z,86.90
2022-09-30T08:07:52.338Z,86.70
2022-09-30T08:11:14.894Z,86.70
2022-09-30T08:14:37.101Z,86.80
2022-09-30T08:17:59.231Z,85.80
2022-09-30T08:21:21.417Z,85.50
2022-09-30T08:24:43.589Z,85.70
2022-09-30T08:28:05.756Z,85.70
2022-09-30T08:31:28.494Z,86.00
2022-09-30T08:34:50.799Z,86.20
2022-09-30T08:38:12.956Z,86.70
2022-09-30T08:42:02.154Z,87.00
2022-09-30T08:46:08.664Z,87.40
2022-09-30T08:49:45.507Z,87.40
2022-09-30T08:53:17.482Z,87.80
2022-09-30T08:56:39.807Z,88.10
2022-09-30T09:00:10.318Z,88.20
2022-09-30T09:03:34.162Z,88.70
2022-09-30T09:07:01.575Z,89.00
2022-09-30T09:10:45.078Z,89.10
2022-09-30T09:14:20.070Z,89.00
2022-09-30T09:18:24.660Z,89.40
2022-09-30T09:22:02.611Z,89.50
2022-09-30T09:25:28.239Z,90.20
2022-09-30T09:29:32.456Z,89.50
2022-09-30T09:33:01.215Z,90.00
2022-09-30T09:36:28.881Z,88.70
2022-09-30T09:40:07.661Z,87.30
2022-09-30T09:43:54.162Z,86.60
2022-09-30T09:47:17.381Z,86.00
2022-09-30T09:50:57.905Z,87.10
2022-09-30T09:54:22.298Z,87.00
2022-09-30T09:57:45.071Z,87.00
2022-09-30T10:01:21.486Z,86.30
2022-09-30T10:04:51.190Z,87.00
2022-09-30T10:08:19.325Z,86.80
2022-09-30T10:11:41.507Z,85.60
2022-09-30T10:15:17.953Z,85.30
2022-09-30T10:18:46.117Z,85.20
2022-09-30T10:22:08.295Z,85.70
2022-09-30T10:25:30.952Z,86.30
2022-09-30T10:28:54.262Z,85.50
2022-09-30T10:32:16.707Z,85.20
2022-09-30T10:35:54.878Z,85.70
2022-09-30T10:39:23.924Z,87.10
2022-09-30T10:42:48.443Z,85.30
2022-09-30T10:46:26.015Z,87.20
2022-09-30T10:49:56.474Z,85.10
2022-09-30T10:53:24.771Z,86.70
2022-09-30T10:56:52.068Z,85.20
2022-09-30T11:00:19.493Z,85.20
2022-09-30T11:03:49.300Z,86.50
2022-09-30T11:07:27.926Z,85.50
2022-09-30T11:11:10.447Z,85.30
2022-09-30T11:14:53.620Z,85.30
2022-09-30T11:18:43.670Z,85.30
2022-09-30T11:22:43.559Z,85.50
2022-09-30T11:26:17.902Z,85.90
2022-09-30T11:30:01.762Z,86.20
2022-09-30T11:33:58.769Z,86.50
2022-09-30T11:37:31.426Z,86.70
2022-09-30T11:41:21.665Z,86.60
2022-09-30T11:44:45.713Z,86.80
2022-09-30T11:48:49.244Z,86.90
2022-09-30T11:52:44.036Z,87.00
2022-09-30T11:56:21.869Z,87.00
2022-09-30T12:00:17.533Z,86.80
2022-09-30T12:03:44.176Z,87.50
2022-09-30T12:07:16.135Z,86.70
2022-09-30T12:10:46.710Z,86.80
2022-09-30T12:14:42.414Z,86.70
2022-09-30T12:18:14.979Z,86.70
2022-09-30T12:21:45.557Z,86.60
2022-09-30T12:25:26.845Z,86.50
2022-09-30T12:29:10.556Z,86.40
2022-09-30T12:33:03.337Z,86.30
2022-09-30T12:36:40.939Z,86.40
2022-09-30T12:40:31.089Z,86.40
2022-09-30T12:44:04.635Z,86.70
2022-09-30T12:47:45.973Z,86.80
2022-09-30T12:51:08.589Z,87.20
2022-09-30T12:54:39.447Z,86.90
2022-09-30T12:58:02.309Z,86.50
2022-09-30T13:01:37.623Z,86.60
2022-09-30T13:05:24.818Z,86.50
2022-09-30T13:09:05.774Z,86.70
2022-09-30T13:12:41.502Z,86.70
2022-09-30T13:16:06.413Z,87.00
2022-09-30T13:19:45.559Z,86.50
2022-09-30T13:23:36.652Z,86.90
2022-09-30T13:27:13.414Z,86.70
2022-09-30T13:30:37.356Z,87.00
2022-09-30T13:34:02.556Z,86.70
2022-09-30T13:37:32.124Z,86.60
2022-09-30T13:41:03.310Z,86.80
2022-09-30T13:45:04.086Z,86.80
2022-09-30T13:48:30.420Z,86.50
2022-09-30T13:51:54.974Z,86.50
2022-09-30T13:55:25.777Z,86.40
2022-09-30T13:58:50.647Z,86.50
2022-09-30T14:02:34.918Z,86.50
2022-09-30T14:06:22.571Z,86.00
2022-09-30T14:10:09.618Z,86.50
2022-09-30T14:13:56.650Z,86.30
2022-09-30T14:17:49.163Z,86.30
2022-09-30T14:21:42.297Z,86.30
2022-09-30T14:25:13.503Z,86.40
2022-09-30T14:28:47.989Z,85.90
2022-09-30T14:32:30.505Z,86.30
2022-09-30T14:35:54.556Z,86.20
2022-09-30T14:39:23.192Z,86.20
2022-09-30T14:42:47.983Z,86.20
2022-09-30T14:46:26.668Z,86.90
2022-09-30T14:49:49.818Z,86.20
2022-09-30T14:53:34.025Z,86.70
2022-09-30T14:56:58.397Z,86.40
2022-09-30T15:00:33.079Z,86.30
2022-09-30T15:04:03.070Z,86.30
2022-09-30T15:07:25.795Z,86.30
2022-09-30T15:10:53.032Z,86.50
2022-09-30T15:14:20.929Z,86.50
2022-09-30T15:17:43.135Z,86.50
2022-09-30T15:21:14.420Z,86.60
2022-09-30T15:24:37.469Z,86.70
2022-09-30T15:27:59.991Z,86.70
2022-09-30T15:31:28.366Z,86.80
2022-09-30T15:34:50.660Z,87.00
2022-09-30T15:38:24.902Z,87.00
2022-09-30T15:41:47.772Z,86.70
2022-09-30T15:45:35.337Z,86.70
2022-09-30T15:49:03.889Z,86.90
2022-09-30T15:52:42.274Z,87.00
2022-09-30T15:56:19.853Z,87.00
2022-09-30T16:00:02.984Z,86.90
2022-09-30T16:03:30.379Z,87.00
2022-09-30T16:06:52.605Z,87.20
2022-09-30T16:10:20.859Z,87.30
2022-09-30T16:13:45.254Z,87.30
2022-09-30T16:17:14.848Z,87.30
2022-09-30T16:20:37.067Z,87.30
2022-09-30T16:23:59.271Z,87.50
2022-09-30T16:27:26.888Z,87.60
2022-09-30T16:30:52.072Z,87.60
2022-09-30T16:34:26.168Z,87.80
2022-09-30T16:37:48.847Z,88.50
2022-09-30T16:41:12.883Z,88.20
2022-09-30T16:44:35.589Z,88.70
2022-09-30T16:48:01.429Z,88.40
2022-09-30T16:51:23.939Z,90.50
2022-09-30T16:54:46.081Z,91.40
2022-09-30T16:58:12.240Z,92.70
2022-09-30T17:01:34.374Z,93.10
2022-09-30T17:04:56.681Z,93.30
2022-09-30T17:08:21.201Z,95.50
2022-09-30T17:11:43.988Z,94.60
2022-09-30T17:15:06.516Z,93.70
2022-09-30T17:18:28.682Z,93.60
2022-09-30T17:21:51.249Z,93.30
2022-09-30T17:25:14.887Z,92.70
2022-09-30T17:28:37.074Z,93.10
2022-09-30T17:31:59.346Z,93.00
2022-09-30T17:35:22.540Z,92.90
2022-09-30T17:38:44.701Z,92.50
2022-09-30T17:42:29.972Z,92.80
2022-09-30T17:45:52.414Z,92.70
2022-09-30T17:49:21.920Z,92.90
2022-09-30T17:52:46.272Z,93.00
2022-09-30T17:56:16.960Z,92.90
2022-09-30T17:59:39.141Z,93.00
2022-09-30T18:03:01.284Z,93.20
2022-09-30T18:06:23.468Z,93.20
2022-09-30T18:09:45.593Z,93.20
2022-09-30T18:13:07.678Z,92.00
2022-09-30T18:16:33.502Z,92.20
2022-09-30T18:19:55.723Z,92.50
2022-09-30T18:23:21.429Z,92.80
2022-09-30T18:26:43.590Z,93.40
2022-09-30T18:30:06.238Z,92.60
2022-09-30T18:33:28.442Z,93.40
2022-09-30T18:36:50.600Z,94.00
2022-09-30T18:40:16.534Z,93.90
2022-09-30T18:43:39.444Z,94.10
2022-09-30T18:47:01.689Z,94.00
2022-09-30T18:50:25.969Z,93.60
2022-09-30T18:53:57.508Z,93.90
2022-09-30T18:57:20.410Z,94.00
2022-09-30T19:00:43.281Z,94.00
2022-09-30T19:04:05.493Z,94.00
2022-09-30T19:07:27.749Z,94.00
2022-09-30T19:10:50.793Z,94.20
2022-09-30T19:14:16.222Z,92.70
2022-09-30T19:17:38.514Z,93.50
2022-09-30T19:21:20.781Z,93.30
2022-09-30T19:24:42.940Z,93.60
2022-09-30T19:28:06.012Z,93.60
2022-09-30T19:31:28.448Z,93.60
2022-09-30T19:35:03.899Z,93.40
2022-09-30T19:38:38.136Z,93.40
2022-09-30T19:42:04.036Z,93.30
2022-09-30T19:45:27.242Z,93.30
2022-09-30T19:48:49.449Z,92.90
2022-09-30T19:52:19.353Z,92.20
2022-09-30T19:55:50.341Z,92.40
2022-09-30T19:59:13.013Z,92.30
2022-09-30T20:02:35.433Z,92.60
2022-09-30T20:05:58.315Z,92.60
2022-09-30T20:09:20.529Z,92.70
2022-09-30T20:12:43.719Z,92.80
2022-09-30T20:16:08.358Z,92.90
2022-09-30T20:19:30.548Z,93.00
2022-09-30T20:22:53.277Z,93.10
2022-09-30T20:26:17.229Z,93.30
2022-09-30T20:29:39.390Z,93.40
2022-09-30T20:33:24.311Z,93.90
2022-09-30T20:36:46.867Z,93.60
2022-09-30T20:40:09.743Z,93.70
2022-09-30T20:43:33.099Z,93.80
2022-09-30T20:46:55.234Z,93.90
2022-09-30T20:50:34.845Z,94.00
2022-09-30T20:53:58.597Z,94.00
2022-09-30T20:57:21.167Z,94.10
2022-09-30T21:00:44.126Z,94.30
2022-09-30T21:04:06.386Z,94.30
2022-09-30T21:07:28.542Z,94.30
2022-09-30T21:10:50.980Z,94.30
2022-09-30T21:14:15.890Z,94.30
2022-09-30T21:17:40.323Z,94.40
2022-09-30T21:21:02.985Z,94.50
2022-09-30T21:24:25.961Z,94.40
2022-09-30T21:27:48.860Z,94.50
2022-09-30T21:31:22.725Z,94.80
2022-09-30T21:34:44.913Z,94.60
2022-09-30T21:38:07.207Z,94.60
2022-09-30T21:41:30.100Z,94.70
2022-09-30T21:44:52.449Z,94.80
2022-09-30T21:48:14.617Z,94.90
2022-09-30T21:51:36.833Z,95.00
2022-09-30T21:54:59.000Z,95.00
2022-09-30T21:58:23.858Z,95.10
2022-09-30T22:01:46.402Z,95.10
2022-09-30T22:05:09.508Z,95.30
2022-09-30T22:08:36.222Z,95.30
2022-09-30T22:11:58.458Z,95.30
2022-09-30T22:15:20.924Z,95.40
2022-09-30T22:18:43.527Z,95.70
2022-09-30T22:22:05.681Z,95.70
2022-09-30T22:25:30.570Z,95.60
2022-09-30T22:29:06.648Z,95.90
2022-09-30T22:32:28.995Z,95.80
2022-09-30T22:36:09.896Z,95.90
2022-09-30T22:39:32.814Z,96.00
2022-09-30T22:42:55.483Z,95.90
2022-09-30T22:46:17.757Z,96.00
2022-09-30T22:49:40.619Z,96.20
2022-09-30T22:53:02.718Z,96.60
2022-09-30T22:56:24.986Z,96.30
2022-09-30T22:59:47.572Z,96.30
2022-09-30T23:03:10.109Z,96.40
2022-09-30T23:06:32.273Z,96.50
2022-09-30T23:09:54.416Z,96.50
2022-09-30T23:13:18.566Z,96.50
2022-09-30T23:16:41.390Z,96.60
2022-09-30T23:20:04.900Z,96.70
2022-09-30T23:23:31.267Z,96.80
2022-09-30T23:26:53.394Z,97.00
2022-09-30T23:30:15.672Z,97.10
2022-09-30T23:33:40.366Z,97.10
2022-09-30T23:37:02.543Z,97.00
2022-09-30T23:40:24.744Z,97.30
2022-09-30T23:43:48.356Z,97.30
2022-09-30T23:47:19.781Z,97.30
2022-09-30T23:50:42.650Z,97.40
2022-09-30T23:54:04.806Z,97.50
2022-09-30T23:57:26.972Z,97.80
